Oylen, Minnesota
Current Conditions -  °F | °C
As of 10:33 AM on Thursday 30 Oct 2014 (Local Time) from KSAZ Reporting Station
Drizzle Drizzle  
Wind Chill: 34°   Ceiling: 1800
Heat Index: 37°   Visibility: 4mi
Dew Point: 36°   Wind: 5mph
Humidity: 93%   Direction: 340°NNW
Pressure: 30.12"   Gusts: NA
Location:  46.4671°N, 94.8901°W
Report Text: KSAZ 301533Z AUTO 34004KT 4SM -DZ SCT009 BKN018 OVC038 03/02 A3012 RMK AO2
Loading
Personal Weather Stations






























Interactive Weather Map
Tropical Storm Tracking
New forecast layout! Learn more

10-Day Weather Forecast

Advertisements
Track Severe Weather on mobile